createdAt,value
2023-04-15T00:00:10.071Z,12.63
2023-04-15T00:02:53.223Z,12.61
2023-04-15T00:05:26.180Z,12.61
2023-04-15T00:07:59.916Z,12.62
2023-04-15T00:10:32.531Z,12.71
2023-04-15T00:13:05.493Z,12.62
2023-04-15T00:15:41.508Z,12.62
2023-04-15T00:18:15.624Z,12.58
2023-04-15T00:20:48.771Z,12.59
2023-04-15T00:23:21.595Z,12.58
2023-04-15T00:25:54.432Z,12.56
2023-04-15T00:28:28.027Z,12.55
2023-04-15T00:31:00.908Z,12.54
2023-04-15T00:33:36.679Z,12.53
2023-04-15T00:36:11.180Z,12.51
2023-04-15T00:38:43.963Z,12.48
2023-04-15T00:41:17.418Z,12.46
2023-04-15T00:43:50.358Z,12.45
2023-04-15T00:46:24.071Z,12.44
2023-04-15T00:48:58.845Z,12.42
2023-04-15T00:51:33.559Z,12.41
2023-04-15T00:54:07.827Z,12.41
2023-04-15T00:56:40.979Z,12.42
2023-04-15T00:59:15.115Z,12.42
2023-04-15T01:01:48.512Z,12.40
2023-04-15T01:04:23.074Z,12.41
2023-04-15T01:06:56.140Z,12.40
2023-04-15T01:09:28.934Z,12.37
2023-04-15T01:12:02.613Z,12.35
2023-04-15T01:14:36.188Z,12.33
2023-04-15T01:17:09.808Z,12.30
2023-04-15T01:19:44.230Z,12.28
2023-04-15T01:22:17.313Z,12.24
2023-04-15T01:24:58.637Z,12.22
2023-04-15T01:27:33.627Z,12.19
2023-04-15T01:30:07.987Z,12.20
2023-04-15T01:32:40.873Z,12.20
2023-04-15T01:35:13.758Z,12.18
2023-04-15T01:37:47.432Z,12.15
2023-04-15T01:40:23.068Z,12.12
2023-04-15T01:42:57.227Z,12.11
2023-04-15T01:45:30.103Z,12.07
2023-04-15T01:48:02.957Z,12.06
2023-04-15T01:50:36.884Z,12.05
2023-04-15T01:53:09.759Z,12.01
2023-04-15T01:55:42.566Z,12.01
2023-04-15T01:58:17.216Z,11.99
2023-04-15T02:00:50.066Z,11.97
2023-04-15T02:03:23.323Z,11.95
2023-04-15T02:05:58.722Z,11.88
2023-04-15T02:08:31.800Z,11.85
2023-04-15T02:11:04.653Z,11.84
2023-04-15T02:13:39.734Z,11.77
2023-04-15T02:16:19.640Z,11.73
2023-04-15T02:18:52.860Z,11.71
2023-04-15T02:21:27.485Z,11.68
2023-04-15T02:24:00.654Z,11.66
2023-04-15T02:26:33.595Z,11.63
2023-04-15T02:29:07.845Z,11.60
2023-04-15T02:31:42.270Z,11.56
2023-04-15T02:34:15.284Z,11.55
2023-04-15T02:36:54.987Z,11.52
2023-04-15T02:39:28.118Z,11.49
2023-04-15T02:42:01.113Z,11.46
2023-04-15T02:44:36.569Z,11.43
2023-04-15T02:47:11.765Z,11.41
2023-04-15T02:49:44.388Z,11.50
2023-04-15T02:52:17.229Z,11.40
2023-04-15T02:54:50.107Z,11.36
2023-04-15T02:57:22.984Z,11.34
2023-04-15T02:59:57.136Z,11.32
2023-04-15T03:02:35.265Z,11.32
2023-04-15T03:05:12.654Z,11.31
2023-04-15T03:07:48.045Z,11.32
2023-04-15T03:10:21.605Z,11.30
2023-04-15T03:12:54.454Z,11.31
2023-04-15T03:15:30.838Z,11.30
2023-04-15T03:18:03.711Z,11.31
2023-04-15T03:20:37.309Z,11.30
2023-04-15T03:23:10.184Z,11.27
2023-04-15T03:25:43.402Z,11.26
2023-04-15T03:28:16.286Z,11.24
2023-04-15T03:30:50.752Z,11.25
2023-04-15T03:33:23.716Z,11.25
2023-04-15T03:35:56.645Z,11.26
2023-04-15T03:38:30.037Z,11.27
2023-04-15T03:41:02.891Z,11.26
2023-04-15T03:43:35.808Z,11.24
2023-04-15T03:46:10.089Z,11.23
2023-04-15T03:48:42.930Z,11.22
2023-04-15T03:51:15.806Z,11.23
2023-04-15T03:53:48.678Z,11.24
2023-04-15T03:56:21.447Z,11.21
2023-04-15T03:58:54.283Z,11.19
2023-04-15T04:01:28.453Z,11.18
2023-04-15T04:04:01.409Z,11.20
2023-04-15T04:06:34.773Z,11.18
2023-04-15T04:09:08.752Z,11.19
2023-04-15T04:11:41.527Z,11.20
2023-04-15T04:14:14.296Z,11.20
2023-04-15T04:16:48.492Z,11.21
2023-04-15T04:19:21.409Z,11.21
2023-04-15T04:21:54.330Z,11.19
2023-04-15T04:24:27.219Z,11.19
2023-04-15T04:27:00.159Z,11.19
2023-04-15T04:29:33.222Z,11.16
2023-04-15T04:32:08.464Z,11.15
2023-04-15T04:34:41.565Z,11.15
2023-04-15T04:37:14.545Z,11.16
2023-04-15T04:39:47.365Z,11.15
2023-04-15T04:42:20.402Z,11.16
2023-04-15T04:44:53.624Z,11.16
2023-04-15T04:47:27.830Z,11.16
2023-04-15T04:50:00.686Z,11.15
2023-04-15T04:52:33.647Z,11.12
2023-04-15T04:55:08.617Z,11.14
2023-04-15T04:57:41.570Z,11.18
2023-04-15T05:00:14.979Z,11.22
2023-04-15T05:02:49.343Z,11.24
2023-04-15T05:05:22.409Z,11.25
2023-04-15T05:07:55.230Z,11.29
2023-04-15T05:10:28.043Z,11.30
2023-04-15T05:13:00.982Z,11.35
2023-04-15T05:15:35.031Z,11.37
2023-04-15T05:18:09.355Z,11.40
2023-04-15T05:20:42.266Z,11.43
2023-04-15T05:23:15.260Z,11.44
2023-04-15T05:25:50.260Z,11.44
2023-04-15T05:28:23.053Z,11.42
2023-04-15T05:30:56.337Z,11.45
2023-04-15T05:33:33.944Z,11.49
2023-04-15T05:36:07.384Z,11.52
2023-04-15T05:38:40.264Z,11.54
2023-04-15T05:41:16.590Z,11.52
2023-04-15T05:43:51.302Z,11.50
2023-04-15T05:46:24.301Z,11.49
2023-04-15T05:48:58.605Z,11.51
2023-04-15T05:51:31.558Z,11.52
2023-04-15T05:54:04.493Z,11.55
2023-04-15T05:56:37.389Z,11.53
2023-04-15T05:59:10.261Z,11.56
2023-04-15T06:01:43.188Z,11.56
2023-04-15T06:04:17.676Z,11.55
2023-04-15T06:06:50.901Z,11.58
2023-04-15T06:09:23.743Z,11.64
2023-04-15T06:11:57.055Z,11.71
2023-04-15T06:14:30.031Z,11.76
2023-04-15T06:17:02.843Z,11.78
2023-04-15T06:19:37.285Z,11.76
2023-04-15T06:22:10.231Z,11.76
2023-04-15T06:24:43.116Z,11.77
2023-04-15T06:27:16.147Z,11.76
2023-04-15T06:29:49.701Z,11.73
2023-04-15T06:32:23.848Z,11.72
2023-04-15T06:34:58.209Z,11.71
2023-04-15T06:37:31.452Z,11.71
2023-04-15T06:40:05.209Z,11.69
2023-04-15T06:42:38.389Z,11.71
2023-04-15T06:45:12.425Z,11.70
2023-04-15T06:47:45.355Z,11.70
2023-04-15T06:50:19.717Z,11.69
2023-04-15T06:52:52.589Z,11.68
2023-04-15T06:55:25.409Z,11.71
2023-04-15T06:57:58.258Z,11.74
2023-04-15T07:00:31.292Z,11.76
2023-04-15T07:03:04.357Z,11.76
2023-04-15T07:05:38.565Z,11.77
2023-04-15T07:08:11.566Z,11.77
2023-04-15T07:10:44.417Z,11.77
2023-04-15T07:13:17.572Z,11.78
2023-04-15T07:15:50.505Z,11.78
2023-04-15T07:18:23.537Z,11.81
2023-04-15T07:20:57.925Z,11.83
2023-04-15T07:23:31.470Z,11.84
2023-04-15T07:26:04.623Z,11.87
2023-04-15T07:28:37.436Z,11.90
2023-04-15T07:31:13.891Z,11.91
2023-04-15T07:33:49.418Z,11.92
2023-04-15T07:36:23.560Z,11.92
2023-04-15T07:38:56.441Z,11.95
2023-04-15T07:41:29.406Z,11.97
2023-04-15T07:44:02.594Z,11.97
2023-04-15T07:46:35.539Z,11.98
2023-04-15T07:49:08.706Z,12.00
2023-04-15T07:51:43.152Z,11.99
2023-04-15T07:54:16.305Z,12.01
2023-04-15T07:56:49.204Z,12.02
2023-04-15T07:59:22.664Z,12.02
2023-04-15T08:01:55.646Z,12.04
2023-04-15T08:04:28.747Z,12.06
2023-04-15T08:07:06.187Z,12.05
2023-04-15T08:09:39.178Z,12.05
2023-04-15T08:12:13.550Z,12.05
2023-04-15T08:14:49.627Z,12.06
2023-04-15T08:17:22.529Z,12.11
2023-04-15T08:19:55.591Z,12.17
2023-04-15T08:22:29.806Z,12.22
2023-04-15T08:25:03.900Z,12.26
2023-04-15T08:27:36.750Z,12.31
2023-04-15T08:30:10.721Z,12.33
2023-04-15T08:32:43.923Z,12.35
2023-04-15T08:35:16.905Z,12.41
2023-04-15T08:37:51.107Z,12.42
2023-04-15T08:40:29.345Z,12.44
2023-04-15T08:43:04.571Z,12.46
2023-04-15T08:45:40.351Z,12.47
2023-04-15T08:48:17.487Z,12.47
2023-04-15T08:50:50.436Z,12.51
2023-04-15T08:53:25.643Z,12.50
2023-04-15T08:55:59.545Z,12.49
2023-04-15T08:58:32.879Z,12.51
2023-04-15T09:01:08.264Z,12.52
2023-04-15T09:03:41.528Z,12.51
2023-04-15T09:06:14.903Z,12.52
2023-04-15T09:08:49.188Z,12.56
2023-04-15T09:11:23.360Z,12.58
2023-04-15T09:13:57.545Z,12.62
2023-04-15T09:16:30.746Z,12.68
2023-04-15T09:19:22.833Z,12.74
2023-04-15T09:21:59.683Z,12.70
2023-04-15T09:24:39.607Z,12.68
2023-04-15T09:27:12.495Z,12.64
2023-04-15T09:29:45.359Z,12.61
2023-04-15T09:32:18.275Z,12.58
2023-04-15T09:34:51.142Z,12.54
2023-04-15T09:37:36.711Z,12.56
2023-04-15T09:40:12.430Z,12.54
2023-04-15T09:42:57.844Z,12.57
2023-04-15T09:45:31.058Z,12.59
2023-04-15T09:48:17.992Z,12.66
2023-04-15T09:50:53.656Z,12.71
2023-04-15T09:53:28.421Z,12.76
2023-04-15T09:56:04.366Z,12.79
2023-04-15T09:58:38.791Z,12.83
2023-04-15T10:01:11.869Z,12.88
2023-04-15T10:03:46.677Z,12.93
2023-04-15T10:06:19.735Z,12.94
2023-04-15T10:08:52.681Z,12.96
2023-04-15T10:11:31.581Z,12.97
2023-04-15T10:14:05.370Z,12.94
2023-04-15T10:16:42.716Z,12.89
2023-04-15T10:19:20.063Z,12.89
2023-04-15T10:21:53.593Z,12.90
2023-04-15T10:24:27.118Z,12.95
2023-04-15T10:27:02.389Z,12.98
2023-04-15T10:29:35.720Z,13.03
2023-04-15T10:32:09.193Z,13.07
2023-04-15T10:34:42.991Z,13.12
2023-04-15T10:37:22.022Z,13.16
2023-04-15T10:39:54.846Z,13.18
2023-04-15T10:42:35.929Z,13.19
2023-04-15T10:45:18.320Z,13.24
2023-04-15T10:47:56.886Z,13.25
2023-04-15T10:50:32.661Z,13.32
2023-04-15T10:53:06.118Z,13.38
2023-04-15T10:55:39.178Z,13.43
2023-04-15T10:58:15.088Z,13.53
2023-04-15T11:00:53.309Z,13.59
2023-04-15T11:03:39.157Z,13.71
2023-04-15T11:06:12.674Z,13.76
2023-04-15T11:09:00.015Z,13.87
2023-04-15T11:12:12.168Z,13.94
2023-04-15T11:14:50.227Z,13.88
2023-04-15T11:17:34.336Z,13.85
2023-04-15T11:20:09.720Z,13.75
2023-04-15T11:22:48.771Z,13.71
2023-04-15T11:25:27.622Z,13.68
2023-04-15T11:28:02.169Z,13.68
2023-04-15T11:30:40.185Z,13.78
2023-04-15T11:33:14.073Z,13.92
2023-04-15T11:35:49.013Z,14.12
2023-04-15T11:38:22.664Z,14.30
2023-04-15T11:40:55.667Z,14.57
2023-04-15T11:43:28.544Z,14.67
2023-04-15T11:46:05.734Z,14.87
2023-04-15T11:48:46.478Z,15.02
2023-04-15T11:51:22.754Z,15.07
2023-04-15T11:53:57.657Z,15.06
2023-04-15T11:56:34.779Z,15.05
2023-04-15T11:59:11.901Z,15.09
2023-04-15T12:01:47.716Z,15.07
2023-04-15T12:04:25.209Z,15.01
2023-04-15T12:07:06.594Z,15.01
2023-04-15T12:09:41.290Z,15.01
2023-04-15T12:12:14.134Z,15.04
2023-04-15T12:14:47.456Z,15.01
2023-04-15T12:17:25.074Z,14.95
2023-04-15T12:20:00.725Z,14.87
2023-04-15T12:22:39.270Z,14.81
2023-04-15T12:25:16.418Z,14.74
2023-04-15T12:27:53.517Z,14.64
2023-04-15T12:30:29.536Z,14.53
2023-04-15T12:33:05.086Z,14.51
2023-04-15T12:35:37.988Z,14.46
2023-04-15T12:38:11.115Z,14.43
2023-04-15T12:40:43.906Z,14.45
2023-04-15T12:43:16.721Z,14.54
2023-04-15T12:45:49.583Z,14.68
2023-04-15T12:48:23.878Z,14.91
2023-04-15T12:50:56.782Z,15.17
2023-04-15T12:53:30.070Z,15.51
2023-04-15T12:56:02.957Z,15.79
2023-04-15T12:58:36.098Z,16.00
2023-04-15T13:01:10.240Z,16.15
2023-04-15T13:03:44.598Z,16.29
2023-04-15T13:06:20.118Z,16.35
2023-04-15T13:08:58.315Z,16.38
2023-04-15T13:11:33.785Z,16.46
2023-04-15T13:14:08.496Z,16.44
2023-04-15T13:16:41.847Z,16.39
2023-04-15T13:19:16.074Z,16.42
2023-04-15T13:21:48.927Z,16.45
2023-04-15T13:24:22.871Z,16.45
2023-04-15T13:26:57.232Z,16.38
2023-04-15T13:29:30.162Z,16.32
2023-04-15T13:32:03.267Z,16.25
2023-04-15T13:34:37.562Z,16.23
2023-04-15T13:37:10.872Z,16.15
2023-04-15T13:39:43.837Z,16.06
2023-04-15T13:42:16.662Z,15.96
2023-04-15T13:44:50.981Z,15.87
2023-04-15T13:47:23.915Z,15.85
2023-04-15T13:49:58.710Z,15.85
2023-04-15T13:52:31.538Z,15.88
2023-04-15T13:55:18.291Z,15.93
2023-04-15T13:57:52.649Z,15.99
2023-04-15T14:00:25.576Z,16.07
2023-04-15T14:02:58.532Z,16.13
2023-04-15T14:05:34.342Z,16.20
2023-04-15T14:08:07.199Z,16.26
2023-04-15T14:10:40.091Z,16.30
2023-04-15T14:13:12.955Z,16.32
2023-04-15T14:15:46.042Z,16.32
2023-04-15T14:18:19.036Z,16.31
2023-04-15T14:20:53.387Z,16.26
2023-04-15T14:23:26.296Z,16.19
2023-04-15T14:25:59.468Z,16.10
2023-04-15T14:28:32.834Z,16.01
2023-04-15T14:31:05.943Z,15.95
2023-04-15T14:33:38.964Z,15.90
2023-04-15T14:36:13.156Z,15.86
2023-04-15T14:38:48.423Z,15.84
2023-04-15T14:41:22.403Z,15.83
2023-04-15T14:43:55.247Z,15.85
2023-04-15T14:46:28.209Z,15.88
2023-04-15T14:49:01.165Z,15.84
2023-04-15T14:51:35.660Z,15.83
2023-04-15T14:54:08.506Z,15.82
2023-04-15T14:56:41.497Z,15.81
2023-04-15T14:59:14.366Z,15.80
2023-04-15T15:01:47.351Z,15.82
2023-04-15T15:04:20.717Z,15.88
2023-04-15T15:06:55.061Z,15.92
2023-04-15T15:09:28.045Z,15.95
2023-04-15T15:12:01.904Z,15.96
2023-04-15T15:14:34.787Z,15.91
2023-04-15T15:17:07.678Z,15.83
2023-04-15T15:19:40.554Z,15.72
2023-04-15T15:22:14.873Z,15.64
2023-04-15T15:24:47.717Z,15.55
2023-04-15T15:27:20.635Z,15.47
2023-04-15T15:29:53.471Z,15.42
2023-04-15T15:32:26.556Z,15.38
2023-04-15T15:34:59.412Z,15.34
2023-04-15T15:37:34.106Z,15.28
2023-04-15T15:40:08.453Z,15.22
2023-04-15T15:42:42.687Z,15.16
2023-04-15T15:45:15.678Z,15.13
2023-04-15T15:47:49.177Z,15.11
2023-04-15T15:50:22.233Z,15.13
2023-04-15T15:52:56.385Z,15.17
2023-04-15T15:55:30.567Z,15.21
2023-04-15T15:58:03.491Z,15.23
2023-04-15T16:00:36.766Z,15.25
2023-04-15T16:03:11.989Z,15.21
2023-04-15T16:05:47.078Z,15.18
2023-04-15T16:08:21.372Z,15.13
2023-04-15T16:10:54.362Z,15.11
2023-04-15T16:13:27.226Z,15.04
2023-04-15T16:16:00.206Z,14.97
2023-04-15T16:18:35.189Z,14.91
2023-04-15T16:21:08.218Z,14.83
2023-04-15T16:23:44.883Z,14.75
2023-04-15T16:26:20.259Z,14.69
2023-04-15T16:28:53.050Z,14.62
2023-04-15T16:31:25.940Z,14.57
2023-04-15T16:33:59.041Z,14.51
2023-04-15T16:36:32.504Z,14.42
2023-04-15T16:39:07.201Z,14.33
2023-04-15T16:41:40.263Z,14.27
2023-04-15T16:44:13.472Z,14.22
2023-04-15T16:46:46.391Z,14.19
2023-04-15T16:49:19.288Z,14.14
2023-04-15T16:51:54.088Z,14.11
2023-04-15T16:54:33.817Z,14.07
2023-04-15T16:57:09.157Z,14.03
2023-04-15T16:59:42.345Z,14.02
2023-04-15T17:02:15.712Z,13.98
2023-04-15T17:04:48.714Z,13.95
2023-04-15T17:07:22.132Z,13.93
2023-04-15T17:09:57.820Z,13.90
2023-04-15T17:12:31.813Z,13.87
2023-04-15T17:15:07.441Z,13.85
2023-04-15T17:17:41.720Z,13.81
2023-04-15T17:20:14.821Z,13.75
2023-04-15T17:22:49.091Z,13.71
2023-04-15T17:25:24.248Z,13.69
2023-04-15T17:27:57.269Z,13.68
2023-04-15T17:30:30.438Z,13.65
2023-04-15T17:33:03.490Z,13.64
2023-04-15T17:35:56.256Z,13.61
2023-04-15T17:38:29.180Z,13.57
2023-04-15T17:41:03.594Z,13.54
2023-04-15T17:43:36.724Z,13.50
2023-04-15T17:46:10.337Z,13.46
2023-04-15T17:48:43.264Z,13.40
2023-04-15T17:51:17.115Z,13.35
2023-04-15T17:53:50.268Z,13.30
2023-04-15T17:56:25.144Z,13.25
2023-04-15T17:59:00.800Z,13.22
2023-04-15T18:01:39.306Z,13.18
2023-04-15T18:04:25.693Z,13.15
2023-04-15T18:07:00.127Z,13.11
2023-04-15T18:09:41.537Z,13.09
2023-04-15T18:12:16.114Z,13.08
2023-04-15T18:14:50.945Z,13.06
2023-04-15T18:17:24.152Z,13.03
2023-04-15T18:19:57.306Z,12.99
2023-04-15T18:22:30.165Z,12.98
2023-04-15T18:25:04.290Z,12.94
2023-04-15T18:27:40.068Z,12.91
2023-04-15T18:30:13.935Z,12.88
2023-04-15T18:32:46.814Z,12.87
2023-04-15T18:35:20.684Z,12.83
2023-04-15T18:37:54.060Z,12.80
2023-04-15T18:40:27.050Z,12.75
2023-04-15T18:43:01.402Z,12.72
2023-04-15T18:48:32.926Z,12.62
2023-04-15T18:51:05.894Z,12.60
2023-04-15T18:53:38.940Z,12.58
2023-04-15T18:56:11.903Z,12.54
2023-04-15T18:59:27.516Z,12.52
2023-04-15T19:01:39.275Z,12.52
2023-04-15T19:04:12.377Z,12.49
2023-04-15T19:06:45.417Z,12.45
2023-04-15T19:09:18.846Z,12.41
2023-04-15T19:11:51.992Z,12.39
2023-04-15T19:14:28.061Z,12.37
2023-04-15T19:17:01.216Z,12.34
2023-04-15T19:19:36.697Z,12.32
2023-04-15T19:22:10.240Z,12.32
2023-04-15T19:24:45.271Z,12.42
2023-04-15T19:27:19.946Z,12.31
2023-04-15T19:29:55.922Z,12.26
2023-04-15T19:32:28.889Z,12.22
2023-04-15T19:35:01.775Z,12.19
2023-04-15T19:37:34.633Z,12.13
2023-04-15T19:40:08.689Z,12.12
2023-04-15T19:42:42.935Z,12.09
2023-04-15T19:45:17.414Z,12.05
2023-04-15T19:47:52.961Z,11.98
2023-04-15T19:50:27.755Z,11.93
2023-04-15T19:53:00.992Z,11.90
2023-04-15T19:55:33.875Z,11.89
2023-04-15T19:58:06.785Z,11.87
2023-04-15T20:00:41.176Z,11.86
2023-04-15T20:03:14.155Z,11.85
2023-04-15T20:05:47.240Z,11.83
2023-04-15T20:08:23.405Z,11.80
2023-04-15T20:10:56.250Z,11.78
2023-04-15T20:13:29.141Z,11.76
2023-04-15T20:16:03.471Z,11.75
2023-04-15T20:18:36.490Z,11.73
2023-04-15T20:21:09.730Z,11.73
2023-04-15T20:23:46.789Z,11.69
2023-04-15T20:26:20.686Z,11.64
2023-04-15T20:28:55.827Z,11.64
2023-04-15T20:31:33.298Z,11.63
2023-04-15T20:34:12.010Z,11.66
2023-04-15T20:36:45.110Z,11.63
2023-04-15T20:39:17.949Z,11.63
2023-04-15T20:41:51.101Z,11.62
2023-04-15T20:44:23.920Z,11.58
2023-04-15T20:46:59.624Z,11.55
2023-04-15T20:49:34.804Z,11.55
2023-04-15T20:52:09.344Z,11.56
2023-04-15T20:54:42.185Z,11.60
2023-04-15T20:57:15.100Z,11.61
2023-04-15T20:59:48.054Z,11.62
2023-04-15T21:02:23.411Z,11.62
2023-04-15T21:04:56.294Z,11.64
2023-04-15T21:07:29.106Z,11.64
2023-04-15T21:10:02.105Z,11.64
2023-04-15T21:12:34.981Z,11.63
2023-04-15T21:15:08.741Z,11.61
2023-04-15T21:17:42.724Z,11.71
2023-04-15T21:20:15.588Z,11.61
2023-04-15T21:22:48.350Z,11.57
2023-04-15T21:25:21.336Z,11.54
2023-04-15T21:27:54.092Z,11.52
2023-04-15T21:30:26.880Z,11.50
2023-04-15T21:33:01.275Z,11.48
2023-04-15T21:35:34.336Z,11.45
2023-04-15T21:38:07.461Z,11.42
2023-04-15T21:40:40.782Z,11.39
2023-04-15T21:43:15.735Z,11.37
2023-04-15T21:46:21.016Z,11.35
2023-04-15T21:48:44.526Z,11.34
2023-04-15T21:51:17.368Z,11.32
2023-04-15T21:53:52.732Z,11.29
2023-04-15T21:56:26.081Z,11.26
2023-04-15T21:58:58.988Z,11.22
2023-04-15T22:01:31.905Z,11.21
2023-04-15T22:04:31.459Z,11.22
2023-04-15T22:07:04.539Z,11.24
2023-04-15T22:09:37.365Z,11.23
2023-04-15T22:12:10.570Z,11.25
2023-04-15T22:14:43.348Z,11.24
2023-04-15T22:17:16.359Z,11.26
2023-04-15T22:19:50.563Z,11.25
2023-04-15T22:22:26.709Z,11.28
2023-04-15T22:25:10.938Z,11.29
2023-04-15T22:27:43.721Z,11.29
2023-04-15T22:30:16.531Z,11.28
2023-04-15T22:32:49.425Z,11.27
2023-04-15T22:35:23.665Z,11.27
2023-04-15T22:37:56.438Z,11.27
2023-04-15T22:40:29.555Z,11.28
2023-04-15T22:43:02.352Z,11.26
2023-04-15T22:45:35.209Z,11.26
2023-04-15T22:48:08.068Z,11.24
2023-04-15T22:50:43.094Z,11.25
2023-04-15T22:53:17.265Z,11.25
2023-04-15T22:55:50.427Z,11.24
2023-04-15T22:58:23.413Z,11.25
2023-04-15T23:00:56.234Z,11.25
2023-04-15T23:03:29.257Z,11.25
2023-04-15T23:06:03.542Z,11.23
2023-04-15T23:08:36.337Z,11.22
2023-04-15T23:11:09.214Z,11.23
2023-04-15T23:13:42.041Z,11.20
2023-04-15T23:16:14.847Z,11.19
2023-04-15T23:18:47.690Z,11.17
2023-04-15T23:21:22.856Z,11.15
2023-04-15T23:23:56.993Z,11.14
2023-04-15T23:26:29.788Z,11.14
2023-04-15T23:29:02.733Z,11.13
2023-04-15T23:31:35.801Z,11.11
2023-04-15T23:34:08.631Z,11.10
2023-04-15T23:36:42.809Z,11.09
2023-04-15T23:39:15.815Z,11.09
2023-04-15T23:41:49.064Z,11.05
2023-04-15T23:44:22.337Z,11.04
2023-04-15T23:46:55.203Z,11.01
2023-04-15T23:49:28.010Z,11.01
2023-04-15T23:52:02.253Z,11.00
2023-04-15T23:54:35.121Z,11.01
2023-04-15T23:57:07.946Z,11.03
2023-04-15T23:59:40.711Z,11.05
